createdAt,value
2023-09-21T00:00:29.286Z,17.24
2023-09-21T00:02:01.807Z,17.24
2023-09-21T00:03:37.684Z,17.18
2023-09-21T00:05:10.225Z,17.14
2023-09-21T00:06:42.346Z,17.11
2023-09-21T00:08:14.452Z,17.18
2023-09-21T00:09:48.209Z,17.18
2023-09-21T01:26:02.735Z,16.97
2023-09-21T01:27:35.832Z,16.97
2023-09-21T01:29:08.243Z,16.98
2023-09-21T01:30:40.893Z,16.97
2023-09-21T01:32:13.052Z,16.95
2023-09-21T01:33:45.406Z,16.95
2023-09-21T01:35:18.118Z,16.97
2023-09-21T01:36:50.150Z,16.98
2023-09-21T01:38:26.987Z,16.98
2023-09-21T01:39:59.042Z,16.97
2023-09-21T01:41:33.652Z,16.97
2023-09-21T01:44:38.564Z,16.90
2023-09-21T01:47:46.246Z,16.92
2023-09-21T01:49:19.104Z,16.95
2023-09-21T01:50:52.531Z,16.99
2023-09-21T01:52:24.708Z,16.97
2023-09-21T01:53:57.045Z,16.97
2023-09-21T01:55:29.136Z,16.96
2023-09-21T01:57:01.744Z,16.95
2023-09-21T02:01:50.371Z,16.96
2023-09-21T02:03:31.940Z,16.98
2023-09-21T02:05:05.143Z,16.98
2023-09-21T02:06:37.224Z,16.97
2023-09-21T02:08:11.329Z,16.98
2023-09-21T02:09:43.407Z,16.99
2023-09-21T02:11:15.688Z,17.03
2023-09-21T02:12:59.448Z,17.10
2023-09-21T02:14:31.490Z,17.14
2023-09-21T02:16:04.108Z,17.08
2023-09-21T02:17:36.193Z,17.08
2023-09-21T02:19:09.414Z,17.08
2023-09-21T02:20:46.596Z,17.08
2023-09-21T02:22:19.045Z,17.09
2023-09-21T02:23:51.113Z,17.08
2023-09-21T02:25:24.018Z,17.10
2023-09-21T02:26:56.210Z,17.10
2023-09-21T02:28:28.285Z,17.09
2023-09-21T02:30:00.880Z,17.11
2023-09-21T02:31:32.905Z,17.11
2023-09-21T02:33:11.478Z,17.12
2023-09-21T02:34:43.608Z,17.11
2023-09-21T02:36:21.610Z,17.14
2023-09-21T02:37:54.839Z,17.13
2023-09-21T02:39:27.514Z,17.16
2023-09-21T02:40:59.692Z,17.15
2023-09-21T02:42:31.757Z,17.15
2023-09-21T02:44:05.531Z,17.14
2023-09-21T02:47:10.320Z,17.08
2023-09-21T02:48:42.801Z,17.15
2023-09-21T02:50:16.380Z,17.16
2023-09-21T02:51:48.890Z,17.12
2023-09-21T02:53:22.510Z,17.14
2023-09-21T02:54:55.563Z,17.14
2023-09-21T02:56:27.637Z,17.14
2023-09-21T02:58:11.447Z,17.15
2023-09-21T02:59:44.429Z,17.19
2023-09-21T03:01:17.610Z,17.14
2023-09-21T03:02:50.831Z,17.16
2023-09-21T03:04:23.562Z,17.16
2023-09-21T03:05:56.607Z,17.16
2023-09-21T03:07:28.834Z,17.18
2023-09-21T03:09:01.100Z,17.20
2023-09-21T03:10:33.681Z,17.24
2023-09-21T03:12:06.252Z,17.25
2023-09-21T03:13:39.751Z,17.25
2023-09-21T03:15:16.140Z,17.23
2023-09-21T03:16:48.935Z,17.22
2023-09-21T03:18:22.739Z,17.23
2023-09-21T03:19:56.839Z,17.26
2023-09-21T03:21:29.298Z,17.25
2023-09-21T03:23:05.936Z,17.25
2023-09-21T03:24:41.260Z,17.26
2023-09-21T03:26:15.362Z,17.22
2023-09-21T03:27:50.189Z,17.23
2023-09-21T03:29:23.077Z,17.23
2023-09-21T03:30:55.865Z,17.22
2023-09-21T03:32:28.089Z,17.20
2023-09-21T03:34:04.167Z,17.19
2023-09-21T03:35:36.386Z,17.18
2023-09-21T03:37:08.558Z,17.18
2023-09-21T03:38:41.619Z,17.17
2023-09-21T03:40:15.022Z,17.17
2023-09-21T03:41:47.703Z,17.18
2023-09-21T03:43:21.023Z,17.17
2023-09-21T03:44:53.111Z,17.24
2023-09-21T03:46:25.279Z,17.19
2023-09-21T03:47:57.820Z,17.17
2023-09-21T03:49:30.249Z,17.16
2023-09-21T03:51:05.913Z,17.17
2023-09-21T03:52:38.523Z,17.17
2023-09-21T03:54:10.723Z,17.18
2023-09-21T03:55:47.943Z,17.17
2023-09-21T03:57:20.163Z,17.15
2023-09-21T03:58:52.843Z,17.14
2023-09-21T04:00:39.120Z,17.15
2023-09-21T04:02:11.656Z,17.15
2023-09-21T04:03:45.095Z,17.14
2023-09-21T04:05:20.367Z,17.13
2023-09-21T04:06:52.581Z,17.15
2023-09-21T04:08:24.682Z,17.17
2023-09-21T04:09:56.823Z,17.17
2023-09-21T04:11:31.277Z,17.19
2023-09-21T04:13:03.566Z,17.20
2023-09-21T04:14:35.635Z,17.23
2023-09-21T04:16:07.870Z,17.25
2023-09-21T04:17:41.163Z,17.28
2023-09-21T04:19:16.265Z,17.27
2023-09-21T04:20:50.163Z,17.25
2023-09-21T04:22:23.460Z,17.23
2023-09-21T04:23:55.610Z,17.24
2023-09-21T04:25:27.797Z,17.24
2023-09-21T04:27:00.006Z,17.24
2023-09-21T04:28:32.167Z,17.25
2023-09-21T04:30:05.307Z,17.26
2023-09-21T04:31:38.520Z,17.28
2023-09-21T04:33:10.951Z,17.28
2023-09-21T04:34:43.366Z,17.29
2023-09-21T04:36:15.851Z,17.30
2023-09-21T04:37:49.474Z,17.30
2023-09-21T04:39:21.623Z,17.28
2023-09-21T04:40:54.099Z,17.29
2023-09-21T04:42:26.415Z,17.30
2023-09-21T04:43:58.538Z,17.31
2023-09-21T04:45:33.714Z,17.33
2023-09-21T04:47:06.738Z,17.35
2023-09-21T04:48:40.982Z,17.38
2023-09-21T04:50:14.647Z,17.42
2023-09-21T04:51:46.794Z,17.43
2023-09-21T04:53:18.907Z,17.44
2023-09-21T04:54:52.864Z,17.48
2023-09-21T04:56:25.024Z,17.49
2023-09-21T04:57:57.180Z,17.51
2023-09-21T04:59:29.699Z,17.54
2023-09-21T05:01:11.089Z,17.57
2023-09-21T05:02:44.193Z,17.61
2023-09-21T05:04:16.449Z,17.70
2023-09-21T05:07:21.375Z,17.66
2023-09-21T05:08:55.233Z,17.73
2023-09-21T05:15:42.443Z,17.78
2023-09-21T05:17:14.659Z,17.81
2023-09-21T05:25:39.978Z,17.85
2023-09-21T05:27:13.397Z,17.91
2023-09-21T05:28:46.048Z,17.92
2023-09-21T05:30:20.682Z,17.95
2023-09-21T05:31:54.100Z,18.00
2023-09-21T05:33:26.314Z,18.00
2023-09-21T05:34:58.561Z,18.03
2023-09-21T05:36:31.688Z,18.07
2023-09-21T05:38:06.809Z,18.07
2023-09-21T05:39:42.263Z,18.14
2023-09-21T05:41:14.408Z,18.11
2023-09-21T05:42:46.665Z,18.12
2023-09-21T05:44:22.819Z,18.16
2023-09-21T05:45:55.040Z,18.18
2023-09-21T05:47:27.697Z,18.22
2023-09-21T05:49:00.914Z,18.25
2023-09-21T05:50:34.518Z,18.30
2023-09-21T05:52:13.300Z,18.33
2023-09-21T05:53:45.499Z,18.38
2023-09-21T05:55:18.198Z,18.41
2023-09-21T05:56:50.415Z,18.47
2023-09-21T05:58:22.520Z,18.49
2023-09-21T05:59:56.538Z,18.55
2023-09-21T06:01:32.829Z,18.58
2023-09-21T06:03:05.345Z,18.59
2023-09-21T06:04:37.854Z,18.60
2023-09-21T06:06:11.422Z,18.66
2023-09-21T06:07:43.587Z,18.67
2023-09-21T06:09:20.926Z,18.71
2023-09-21T06:10:53.724Z,18.74
2023-09-21T06:12:26.283Z,18.78
2023-09-21T06:13:58.434Z,18.83
2023-09-21T06:15:30.931Z,18.88
2023-09-21T06:17:08.129Z,18.93
2023-09-21T06:18:41.178Z,19.00
2023-09-21T06:20:14.415Z,19.09
2023-09-21T06:21:52.562Z,19.14
2023-09-21T06:23:24.946Z,19.21
2023-09-21T06:24:58.216Z,19.30
2023-09-21T06:26:30.142Z,19.44
2023-09-21T06:28:02.784Z,19.48
2023-09-21T06:29:35.516Z,19.56
2023-09-21T06:31:08.740Z,19.61
2023-09-21T06:32:40.921Z,19.78
2023-09-21T06:34:13.702Z,19.80
2023-09-21T06:35:46.115Z,19.86
2023-09-21T06:37:20.078Z,19.92
2023-09-21T06:38:52.851Z,19.98
2023-09-21T06:40:27.918Z,20.02
2023-09-21T06:42:00.257Z,20.06
2023-09-21T06:43:33.719Z,20.10
2023-09-21T06:45:07.313Z,20.14
2023-09-21T06:46:41.659Z,20.22
2023-09-21T06:48:14.125Z,20.24
2023-09-21T06:49:46.432Z,20.29
2023-09-21T06:51:18.629Z,20.34
2023-09-21T06:52:50.778Z,20.38
2023-09-21T06:54:25.289Z,20.42
2023-09-21T06:55:57.675Z,20.46
2023-09-21T06:57:30.581Z,20.50
2023-09-21T06:59:02.660Z,20.54
2023-09-21T07:00:35.384Z,20.59
2023-09-21T07:02:08.000Z,20.63
2023-09-21T07:03:40.272Z,20.67
2023-09-21T07:05:14.091Z,20.71
2023-09-21T07:06:46.842Z,20.74
2023-09-21T07:08:20.758Z,20.80
2023-09-21T07:09:55.031Z,20.82
2023-09-21T07:11:27.265Z,20.85
2023-09-21T07:12:59.885Z,20.89
2023-09-21T07:14:34.526Z,20.93
2023-09-21T07:16:06.740Z,20.97
2023-09-21T07:17:39.019Z,20.99
2023-09-21T07:19:11.861Z,21.02
2023-09-21T07:20:44.052Z,21.06
2023-09-21T07:22:16.332Z,21.11
2023-09-21T07:23:48.506Z,21.13
2023-09-21T07:25:21.366Z,21.17
2023-09-21T07:26:55.684Z,21.20
2023-09-21T07:28:30.896Z,21.27
2023-09-21T07:30:03.914Z,21.25
2023-09-21T07:31:37.433Z,21.22
2023-09-21T07:33:09.928Z,21.30
2023-09-21T07:34:42.307Z,21.32
2023-09-21T07:36:14.624Z,21.35
2023-09-21T07:37:51.412Z,21.39
2023-09-21T07:39:23.645Z,21.41
2023-09-21T07:40:55.872Z,21.43
2023-09-21T07:42:28.037Z,21.46
2023-09-21T07:44:00.197Z,21.50
2023-09-21T07:45:32.558Z,21.51
2023-09-21T07:47:05.468Z,21.53
2023-09-21T07:48:37.647Z,21.54
2023-09-21T07:50:10.092Z,21.57
2023-09-21T07:51:42.343Z,21.59
2023-09-21T07:53:14.448Z,21.62
2023-09-21T07:54:46.604Z,21.66
2023-09-21T07:56:18.717Z,21.69
2023-09-21T07:57:52.406Z,21.72
2023-09-21T07:59:24.610Z,21.76
2023-09-21T08:00:57.303Z,21.77
2023-09-21T08:02:29.549Z,21.81
2023-09-21T08:04:01.908Z,21.82
2023-09-21T08:05:34.815Z,21.87
2023-09-21T08:07:07.102Z,21.88
2023-09-21T08:08:39.249Z,21.90
2023-09-21T08:10:14.307Z,21.93
2023-09-21T08:11:46.815Z,21.96
2023-09-21T08:13:19.339Z,21.97
2023-09-21T08:14:52.501Z,21.98
2023-09-21T08:16:24.592Z,22.02
2023-09-21T08:17:57.010Z,21.99
2023-09-21T08:19:29.188Z,22.00
2023-09-21T08:21:01.825Z,22.02
2023-09-21T08:22:33.969Z,22.02
2023-09-21T08:24:06.240Z,22.05
2023-09-21T08:25:39.419Z,22.06
2023-09-21T08:27:11.671Z,22.13
2023-09-21T08:28:44.097Z,22.09
2023-09-21T08:30:17.540Z,22.10
2023-09-21T08:31:49.914Z,22.10
2023-09-21T08:33:22.399Z,22.10
2023-09-21T08:34:54.896Z,22.11
2023-09-21T08:36:27.868Z,22.10
2023-09-21T08:38:01.152Z,22.10
2023-09-21T08:39:33.361Z,22.10
2023-09-21T08:41:06.167Z,22.10
2023-09-21T08:42:38.677Z,22.11
2023-09-21T08:44:11.284Z,22.12
2023-09-21T08:45:43.445Z,22.12
2023-09-21T08:47:32.067Z,22.11
2023-09-21T08:49:08.283Z,22.14
2023-09-21T08:50:40.902Z,22.11
2023-09-21T08:52:14.566Z,22.14
2023-09-21T08:53:51.998Z,22.15
2023-09-21T08:55:27.040Z,22.13
2023-09-21T08:57:00.184Z,22.16
2023-09-21T08:58:34.872Z,22.21
2023-09-21T09:00:08.273Z,22.16
2023-09-21T09:01:41.465Z,22.18
2023-09-21T09:03:13.667Z,22.22
2023-09-21T09:04:46.824Z,22.18
2023-09-21T09:06:18.938Z,22.15
2023-09-21T09:07:51.076Z,22.13
2023-09-21T09:09:24.094Z,22.16
2023-09-21T09:10:56.333Z,22.16
2023-09-21T09:12:28.520Z,22.17
2023-09-21T09:14:00.641Z,22.17
2023-09-21T09:15:36.859Z,22.21
2023-09-21T09:17:15.461Z,22.22
2023-09-21T09:18:47.690Z,22.20
2023-09-21T09:20:21.054Z,22.21
2023-09-21T09:21:53.760Z,22.21
2023-09-21T09:23:26.500Z,22.24
2023-09-21T09:25:05.906Z,22.26
2023-09-21T09:26:38.139Z,22.29
2023-09-21T09:28:10.316Z,22.32
2023-09-21T09:29:55.101Z,22.39
2023-09-21T09:31:27.329Z,22.39
2023-09-21T09:32:59.744Z,22.40
2023-09-21T09:34:31.895Z,22.45
2023-09-21T09:36:04.480Z,22.47
2023-09-21T09:37:39.098Z,22.52
2023-09-21T09:39:16.678Z,22.54
2023-09-21T09:40:49.197Z,22.55
2023-09-21T09:42:21.944Z,22.59
2023-09-21T09:43:54.971Z,22.60
2023-09-21T09:45:27.565Z,22.61
2023-09-21T09:47:02.876Z,22.67
2023-09-21T09:48:36.364Z,22.67
2023-09-21T09:50:10.724Z,22.69
2023-09-21T09:51:46.250Z,22.69
2023-09-21T09:53:20.170Z,22.72
2023-09-21T09:54:53.535Z,22.74
2023-09-21T09:56:26.563Z,22.77
2023-09-21T09:57:59.689Z,22.82
2023-09-21T10:01:05.081Z,22.86
2023-09-21T10:02:38.310Z,22.90
2023-09-21T10:04:10.491Z,23.01
2023-09-21T10:05:43.875Z,23.02
2023-09-21T10:07:18.674Z,23.03
2023-09-21T10:08:50.914Z,23.08
2023-09-21T10:10:23.964Z,23.13
2023-09-21T10:11:59.273Z,23.20
2023-09-21T10:13:31.719Z,23.22
2023-09-21T10:15:04.806Z,23.29
2023-09-21T10:16:40.490Z,23.30
2023-09-21T10:18:12.925Z,23.37
2023-09-21T10:19:45.928Z,23.37
2023-09-21T10:21:24.165Z,23.46
2023-09-21T10:22:57.261Z,23.49
2023-09-21T10:24:33.648Z,23.54
2023-09-21T10:26:06.237Z,23.54
2023-09-21T10:27:47.703Z,23.61
2023-09-21T10:49:07.677Z,24.06
2023-09-21T10:50:40.878Z,24.07
2023-09-21T10:52:13.509Z,24.14
2023-09-21T10:53:45.919Z,24.12
2023-09-21T10:55:19.067Z,24.11
2023-09-21T10:56:51.082Z,24.18
2023-09-21T10:58:25.989Z,24.13
2023-09-21T11:00:13.363Z,24.16
2023-09-21T11:01:46.415Z,24.18
2023-09-21T11:03:18.783Z,24.19
2023-09-21T11:04:54.133Z,24.25
2023-09-21T11:06:27.999Z,24.26
2023-09-21T11:08:00.642Z,24.28
2023-09-21T11:09:33.305Z,24.31
2023-09-21T11:11:05.536Z,24.34
2023-09-21T11:12:39.712Z,24.35
2023-09-21T11:14:11.950Z,24.37
2023-09-21T11:15:44.889Z,24.36
2023-09-21T11:17:20.642Z,24.39
2023-09-21T11:18:55.205Z,24.43
2023-09-21T11:20:27.477Z,24.47
2023-09-21T11:22:03.416Z,24.52
2023-09-21T11:23:37.223Z,24.53
2023-09-21T11:25:11.397Z,24.57
2023-09-21T11:26:56.017Z,24.63
2023-09-21T11:28:34.317Z,24.68
2023-09-21T11:30:11.740Z,24.70
2023-09-21T11:31:49.360Z,24.71
2023-09-21T11:33:22.130Z,24.74
2023-09-21T11:35:00.326Z,24.80
2023-09-21T11:36:32.524Z,24.79
2023-09-21T11:38:05.151Z,24.81
2023-09-21T11:39:42.835Z,24.89
2023-09-21T11:41:16.083Z,24.93
2023-09-21T11:42:50.521Z,25.01
2023-09-21T11:44:22.687Z,25.08
2023-09-21T11:45:54.996Z,25.11
2023-09-21T11:47:27.189Z,25.13
2023-09-21T11:49:00.211Z,25.15
2023-09-21T11:50:33.935Z,25.17
2023-09-21T11:52:06.441Z,25.17
2023-09-21T11:53:38.892Z,25.20
2023-09-21T11:55:12.825Z,25.20
2023-09-21T11:56:47.280Z,25.19
2023-09-21T11:58:19.708Z,25.19
2023-09-21T11:59:53.051Z,25.22
2023-09-21T12:01:25.557Z,25.26
2023-09-21T12:03:00.634Z,25.30
2023-09-21T12:04:33.194Z,25.34
2023-09-21T12:06:05.820Z,25.40
2023-09-21T12:07:41.607Z,25.46
2023-09-21T12:09:14.889Z,25.57
2023-09-21T12:10:48.522Z,25.69
2023-09-21T12:12:20.897Z,25.79
2023-09-21T12:13:53.055Z,25.89
2023-09-21T12:15:25.310Z,25.97
2023-09-21T12:16:57.614Z,26.05
2023-09-21T12:18:31.479Z,26.09
2023-09-21T12:20:12.945Z,26.17
2023-09-21T12:21:45.147Z,26.24
2023-09-21T12:23:17.793Z,26.33
2023-09-21T12:24:49.956Z,26.39
2023-09-21T12:26:22.556Z,26.43
2023-09-21T12:27:54.726Z,26.49
2023-09-21T12:29:26.921Z,26.56
2023-09-21T12:30:59.301Z,26.66
2023-09-21T12:32:33.199Z,26.76
2023-09-21T12:34:05.506Z,26.84
2023-09-21T12:35:37.672Z,26.88
2023-09-21T12:37:09.913Z,26.92
2023-09-21T12:38:42.296Z,26.99
2023-09-21T12:40:14.629Z,26.97
2023-09-21T12:41:47.010Z,26.85
2023-09-21T12:43:19.413Z,26.84
2023-09-21T12:44:51.555Z,26.79
2023-09-21T12:46:24.559Z,26.78
2023-09-21T12:47:56.759Z,26.76
2023-09-21T12:49:29.390Z,26.70
2023-09-21T12:51:01.697Z,26.64
2023-09-21T12:52:34.572Z,26.61
2023-09-21T12:54:08.889Z,26.57
2023-09-21T12:55:45.783Z,26.58
2023-09-21T12:57:20.558Z,26.66
2023-09-21T12:58:52.760Z,26.69
2023-09-21T13:00:25.492Z,26.75
2023-09-21T13:01:58.387Z,26.74
2023-09-21T13:03:32.559Z,26.82
2023-09-21T13:05:05.692Z,26.88
2023-09-21T13:06:43.752Z,26.91
2023-09-21T13:08:17.729Z,26.92
2023-09-21T13:09:52.555Z,26.86
2023-09-21T13:11:25.156Z,26.83
2023-09-21T13:12:58.479Z,26.79
2023-09-21T13:14:32.040Z,26.73
2023-09-21T13:16:07.302Z,26.70
2023-09-21T13:17:39.983Z,26.62
2023-09-21T13:19:13.239Z,26.59
2023-09-21T13:20:45.538Z,26.52
2023-09-21T13:22:21.080Z,26.50
2023-09-21T13:23:57.366Z,26.47
2023-09-21T13:25:30.278Z,26.42
2023-09-21T13:27:03.761Z,26.41
2023-09-21T13:28:36.384Z,26.41
2023-09-21T13:30:14.498Z,26.41
2023-09-21T13:31:46.738Z,26.38
2023-09-21T13:33:20.195Z,26.36
2023-09-21T13:34:52.875Z,26.38
2023-09-21T13:36:25.035Z,26.39
2023-09-21T13:37:57.238Z,26.39
2023-09-21T13:39:29.375Z,26.38
2023-09-21T13:41:01.612Z,26.38
2023-09-21T13:42:34.786Z,26.37
2023-09-21T13:44:06.937Z,26.37
2023-09-21T13:45:39.364Z,26.36
2023-09-21T13:47:11.707Z,26.37
2023-09-21T13:48:44.030Z,26.39
2023-09-21T13:50:16.896Z,26.41
2023-09-21T13:51:49.264Z,26.42
2023-09-21T13:53:21.429Z,26.43
2023-09-21T13:55:06.110Z,26.45
2023-09-21T13:56:47.059Z,26.48
2023-09-21T13:58:20.435Z,26.49
2023-09-21T13:59:52.521Z,26.48
2023-09-21T14:01:28.209Z,26.51
2023-09-21T14:03:01.513Z,26.49
2023-09-21T14:04:34.097Z,26.52
2023-09-21T14:06:07.141Z,26.46
2023-09-21T14:07:39.774Z,26.43
2023-09-21T14:09:12.116Z,26.43
2023-09-21T14:10:45.169Z,26.44
2023-09-21T14:12:17.201Z,26.50
2023-09-21T14:13:49.644Z,26.48
2023-09-21T14:15:22.707Z,26.47
2023-09-21T14:16:54.808Z,26.55
2023-09-21T14:18:27.049Z,26.52
2023-09-21T14:19:59.918Z,26.56
2023-09-21T14:21:33.087Z,26.60
2023-09-21T14:23:05.366Z,26.61
2023-09-21T14:24:37.666Z,26.62
2023-09-21T14:26:10.413Z,26.68
2023-09-21T14:27:43.246Z,26.73
2023-09-21T14:29:15.541Z,26.74
2023-09-21T14:30:48.213Z,26.72
2023-09-21T14:32:20.540Z,26.73
2023-09-21T14:33:52.748Z,26.70
2023-09-21T14:35:25.327Z,26.67
2023-09-21T14:36:57.564Z,26.64
2023-09-21T14:38:29.730Z,26.60
2023-09-21T14:40:02.147Z,26.55
2023-09-21T14:41:34.524Z,26.50
2023-09-21T14:43:07.346Z,26.46
2023-09-21T14:44:41.235Z,26.40
2023-09-21T14:46:13.412Z,26.34
2023-09-21T14:47:45.690Z,26.30
2023-09-21T14:49:17.814Z,26.23
2023-09-21T14:50:50.001Z,26.23
2023-09-21T14:52:22.197Z,26.21
2023-09-21T14:53:55.907Z,26.21
2023-09-21T14:55:28.119Z,26.22
2023-09-21T14:57:01.423Z,26.24
2023-09-21T14:58:34.118Z,26.27
2023-09-21T15:00:08.529Z,26.32
2023-09-21T15:01:41.386Z,26.35
2023-09-21T15:03:13.720Z,26.36
2023-09-21T15:04:45.955Z,26.36
2023-09-21T15:06:18.222Z,26.40
2023-09-21T15:08:02.696Z,26.40
2023-09-21T17:39:35.096Z,21.49
2023-09-21T17:41:07.277Z,21.42
2023-09-21T17:42:42.766Z,21.41
2023-09-21T17:44:16.949Z,21.38
2023-09-21T17:45:49.194Z,21.36
2023-09-21T17:47:21.569Z,21.31
2023-09-21T17:48:53.917Z,21.23
2023-09-21T17:50:26.802Z,21.22
2023-09-21T17:52:00.699Z,21.19
2023-09-21T17:53:32.860Z,21.17
2023-09-21T17:55:05.488Z,21.16
2023-09-21T17:56:37.784Z,21.13
2023-09-21T17:58:10.075Z,21.09
2023-09-21T17:59:42.791Z,21.06
2023-09-21T18:01:15.022Z,21.04
2023-09-21T18:02:47.472Z,21.02
2023-09-21T18:04:20.237Z,20.97
2023-09-21T18:05:52.453Z,20.93
2023-09-21T18:07:24.646Z,20.86
2023-09-21T18:08:56.854Z,20.81
2023-09-21T18:10:29.094Z,20.76
2023-09-21T18:46:21.653Z,20.19
2023-09-21T18:47:56.772Z,20.15
2023-09-21T18:49:28.963Z,20.17
2023-09-21T18:51:02.883Z,20.17
2023-09-21T18:52:35.958Z,20.16
2023-09-21T18:54:08.067Z,20.15
2023-09-21T18:55:40.264Z,20.15
2023-09-21T18:57:12.397Z,20.16
2023-09-21T18:58:45.941Z,20.17
2023-09-21T19:00:18.613Z,20.16
2023-09-21T19:01:50.851Z,20.15
2023-09-21T19:03:23.490Z,20.17
2023-09-21T19:04:55.732Z,20.16
2023-09-21T19:06:29.177Z,20.16
2023-09-21T19:08:01.655Z,20.15
2023-09-21T19:09:33.870Z,20.17
2023-09-21T19:11:06.557Z,20.20
2023-09-21T19:12:38.675Z,20.19
2023-09-21T19:14:13.062Z,20.23
2023-09-21T19:15:45.273Z,20.25
2023-09-21T19:17:17.733Z,20.26
2023-09-21T19:18:50.068Z,20.25
2023-09-21T19:20:24.118Z,20.23
2023-09-21T19:21:56.400Z,20.22
2023-09-21T19:23:28.720Z,20.24
2023-09-21T19:25:00.833Z,20.33
2023-09-21T19:26:33.047Z,20.37
2023-09-21T19:28:05.349Z,20.43
2023-09-21T19:29:37.549Z,20.47
2023-09-21T19:31:10.107Z,20.48
2023-09-21T19:32:42.511Z,20.51
2023-09-21T19:34:15.858Z,20.46
2023-09-21T19:35:48.594Z,20.50
2023-09-21T19:37:20.825Z,20.41
2023-09-21T19:38:53.017Z,20.45
2023-09-21T19:40:25.185Z,20.46
2023-09-21T19:41:57.367Z,20.48
2023-09-21T19:43:29.600Z,20.50
2023-09-21T19:45:01.941Z,20.52
2023-09-21T19:46:34.241Z,20.53
2023-09-21T19:48:06.776Z,20.54
2023-09-21T19:49:40.773Z,20.56
2023-09-21T19:51:13.578Z,20.57
2023-09-21T19:52:45.910Z,20.58
2023-09-21T19:54:18.078Z,20.60
2023-09-21T19:55:50.344Z,20.63
2023-09-21T19:57:22.808Z,20.66
2023-09-21T19:58:54.993Z,20.67
2023-09-21T20:00:28.425Z,20.71
2023-09-21T20:02:00.630Z,20.68
2023-09-21T20:03:33.293Z,20.67
2023-09-21T20:05:08.710Z,20.66
2023-09-21T20:06:40.940Z,20.67
2023-09-21T20:08:13.191Z,20.66
2023-09-21T20:09:45.433Z,20.67
2023-09-21T20:11:18.063Z,20.60
2023-09-21T20:12:51.000Z,20.64
2023-09-21T20:14:23.123Z,20.60
2023-09-21T20:15:55.485Z,20.58
2023-09-21T20:17:27.712Z,20.56
2023-09-21T20:18:59.900Z,20.53
2023-09-21T20:20:32.087Z,20.52
2023-09-21T20:22:05.003Z,20.51
2023-09-21T20:23:37.194Z,20.51
2023-09-21T20:25:09.700Z,20.49
2023-09-21T20:26:41.866Z,20.46
2023-09-21T20:28:13.946Z,20.42
2023-09-21T20:29:46.091Z,20.42
2023-09-21T20:31:18.274Z,20.41
2023-09-21T20:32:51.151Z,20.40
2023-09-21T20:34:23.492Z,20.37
2023-09-21T20:35:56.632Z,20.35
2023-09-21T20:37:28.709Z,20.33
2023-09-21T20:39:00.932Z,20.32
2023-09-21T20:40:34.437Z,20.30
2023-09-21T20:42:06.569Z,20.29
2023-09-21T20:43:41.486Z,20.32
2023-09-21T20:45:13.675Z,20.31
2023-09-21T20:46:45.835Z,20.28
2023-09-21T20:48:17.989Z,20.27
2023-09-21T20:51:29.038Z,20.27
2023-09-21T20:53:01.194Z,20.27
2023-09-21T20:54:33.458Z,20.26
2023-09-21T20:56:06.200Z,20.23
2023-09-21T20:57:38.416Z,20.20
2023-09-21T20:59:10.659Z,20.18
2023-09-21T21:00:42.918Z,20.11
2023-09-21T21:02:15.880Z,20.10
2023-09-21T21:03:50.518Z,20.11
2023-09-21T21:05:22.794Z,20.06
2023-09-21T21:06:54.972Z,20.01
2023-09-21T21:08:29.780Z,19.99
2023-09-21T21:10:08.465Z,20.01
2023-09-21T21:11:40.604Z,19.94
2023-09-21T21:13:12.798Z,19.89
2023-09-21T21:14:45.016Z,19.90
2023-09-21T21:16:17.195Z,19.88
2023-09-21T21:17:49.424Z,19.85
2023-09-21T21:19:25.128Z,19.78
2023-09-21T21:20:57.361Z,19.78
2023-09-21T21:22:29.528Z,19.77
2023-09-21T21:24:06.814Z,19.72
2023-09-21T21:25:38.919Z,19.71
2023-09-21T21:27:11.071Z,19.72
2023-09-21T21:28:43.198Z,19.71
2023-09-21T21:30:17.051Z,19.71
2023-09-21T21:31:49.174Z,19.72
2023-09-21T21:33:21.408Z,19.74
2023-09-21T21:34:53.578Z,19.72
2023-09-21T21:36:25.801Z,19.73
2023-09-21T21:37:58.945Z,19.71
2023-09-21T21:39:31.260Z,19.72
2023-09-21T21:41:03.722Z,19.72
2023-09-21T21:42:35.923Z,19.71
2023-09-21T21:44:08.737Z,19.70
2023-09-21T21:45:41.160Z,19.69
2023-09-21T21:47:13.688Z,19.68
2023-09-21T21:48:45.750Z,19.67
2023-09-21T21:50:17.970Z,19.65
2023-09-21T21:51:50.099Z,19.59
2023-09-21T21:53:22.255Z,19.60
2023-09-21T21:56:27.309Z,19.57
2023-09-21T21:58:00.472Z,19.59
2023-09-21T21:59:32.711Z,19.60
2023-09-21T22:01:05.988Z,19.61
2023-09-21T22:02:38.012Z,19.67
2023-09-21T22:04:10.218Z,19.60
2023-09-21T22:05:42.400Z,19.59
2023-09-21T22:07:15.051Z,19.57
2023-09-21T22:08:47.582Z,19.55
2023-09-21T22:10:20.202Z,19.53
2023-09-21T22:11:55.688Z,19.51
2023-09-21T22:13:30.851Z,19.50
2023-09-21T22:15:03.892Z,19.50
2023-09-21T22:16:36.243Z,19.48
2023-09-21T22:18:10.305Z,19.46
2023-09-21T22:19:43.661Z,19.44
2023-09-21T22:21:17.580Z,19.51
2023-09-21T22:22:51.422Z,19.48
2023-09-21T22:24:23.565Z,19.45
2023-09-21T22:25:55.675Z,19.42
2023-09-21T22:27:27.813Z,19.40
2023-09-21T22:30:31.915Z,19.32
2023-09-21T22:32:04.221Z,19.28
2023-09-21T22:33:36.456Z,19.21
2023-09-21T22:35:11.435Z,19.18
2023-09-21T22:36:43.682Z,19.14
2023-09-21T22:38:17.192Z,19.10
2023-09-21T22:39:49.440Z,19.06
2023-09-21T22:41:21.544Z,19.02
2023-09-21T22:42:53.566Z,18.97
2023-09-21T22:44:25.671Z,18.94
2023-09-21T22:46:05.752Z,18.96
2023-09-21T22:47:38.095Z,18.96
2023-09-21T22:49:11.585Z,18.92
2023-09-21T22:50:47.347Z,18.96
2023-09-21T22:52:19.601Z,18.96
2023-09-21T22:53:53.941Z,18.98
2023-09-21T22:55:26.306Z,18.98
2023-09-21T22:57:03.480Z,19.04
2023-09-21T22:58:35.616Z,19.00
2023-09-21T23:00:11.807Z,19.04
2023-09-21T23:01:44.231Z,19.01
2023-09-21T23:04:58.693Z,19.00
2023-09-21T23:06:30.885Z,18.99
2023-09-21T23:08:03.295Z,18.99
2023-09-21T23:09:35.453Z,18.98
2023-09-21T23:11:11.256Z,18.98
2023-09-21T23:12:45.126Z,18.99
2023-09-21T23:14:18.463Z,18.98
2023-09-21T23:15:50.426Z,19.03
2023-09-21T23:17:22.590Z,18.96
2023-09-21T23:18:55.446Z,18.95
2023-09-21T23:20:27.500Z,18.93
2023-09-21T23:21:59.534Z,18.93
2023-09-21T23:23:31.695Z,18.89
2023-09-21T23:25:04.208Z,18.90
2023-09-21T23:26:36.347Z,18.89
2023-09-21T23:28:08.408Z,18.89
2023-09-21T23:29:40.575Z,18.91
2023-09-21T23:31:12.729Z,18.92
2023-09-21T23:32:44.863Z,18.93
2023-09-21T23:34:17.029Z,18.92
2023-09-21T23:35:49.403Z,18.90
2023-09-21T23:37:22.088Z,18.90
2023-09-21T23:38:55.054Z,18.89
2023-09-21T23:40:28.592Z,18.88
2023-09-21T23:42:00.620Z,18.83
2023-09-21T23:43:33.013Z,18.80
2023-09-21T23:45:07.533Z,18.75
2023-09-21T23:46:41.610Z,18.67
2023-09-21T23:48:15.745Z,18.68
2023-09-21T23:49:48.001Z,18.66
2023-09-21T23:51:20.186Z,18.65
2023-09-21T23:52:52.344Z,18.61
2023-09-21T23:54:24.436Z,18.60
2023-09-21T23:55:56.906Z,18.61
2023-09-21T23:57:32.125Z,18.60
2023-09-21T23:59:05.608Z,18.59
